Roseville, Minnesota
Current Conditions -  °F | °C
As of 3:53 AM on Sunday 21 Dec 2014 (Local Time) from KSTP Reporting Station
Haze Haze  
Wind Chill: 25°   Ceiling: 1000
Heat Index: 32°   Visibility: 6mi
Dew Point: 30°   Wind: 8mph
Humidity: 92%   Direction: 140°SE
Pressure: 30"   Gusts: NA
Location:  45.02°N, 93.15°W
Report Text: KSTP 210953Z AUTO 14007KT 6SM BR OVC010 00/M01 A3000 RMK AO2 SLP166 T00001011
Loading
Personal Weather Stations






























Interactive Weather Map New forecast layout! Learn more

10-Day Weather Forecast

Advertisements
Track Severe Weather on mobile